createdAt,value
2019-03-22T00:00:35.224Z,8.60
2019-03-22T00:03:04.290Z,8.50
2019-03-22T00:05:32.750Z,8.50
2019-03-22T00:08:01.500Z,8.50
2019-03-22T00:10:30.045Z,8.50
2019-03-22T00:12:59.842Z,8.50
2019-03-22T00:15:28.700Z,8.50
2019-03-22T00:17:57.205Z,8.40
2019-03-22T00:20:26.759Z,8.40
2019-03-22T00:22:55.335Z,8.40
2019-03-22T00:25:24.071Z,8.40
2019-03-22T00:27:53.004Z,8.40
2019-03-22T00:30:21.629Z,8.40
2019-03-22T00:32:50.114Z,8.40
2019-03-22T00:35:18.698Z,8.40
2019-03-22T00:37:47.275Z,8.30
2019-03-22T00:40:15.886Z,8.30
2019-03-22T00:42:44.460Z,8.30
2019-03-22T00:45:13.345Z,8.20
2019-03-22T00:47:41.829Z,8.20
2019-03-22T00:50:12.680Z,8.20
2019-03-22T00:52:41.214Z,8.10
2019-03-22T00:55:10.302Z,8.10
2019-03-22T00:57:38.852Z,8.00
2019-03-22T01:00:10.490Z,8.00
2019-03-22T01:02:39.203Z,8.00
2019-03-22T01:05:09.382Z,8.00
2019-03-22T01:07:38.414Z,8.00
2019-03-22T01:10:09.931Z,8.00
2019-03-22T01:12:39.202Z,7.90
2019-03-22T01:15:10.381Z,7.90
2019-03-22T01:17:39.012Z,7.90
2019-03-22T01:20:09.236Z,7.90
2019-03-22T01:22:37.815Z,7.90
2019-03-22T01:25:08.387Z,7.80
2019-03-22T01:27:40.947Z,7.80
2019-03-22T01:30:10.713Z,7.80
2019-03-22T01:32:39.261Z,7.80
2019-03-22T01:35:09.050Z,7.80
2019-03-22T01:37:38.031Z,7.80
2019-03-22T01:40:08.701Z,7.70
2019-03-22T01:42:37.334Z,7.80
2019-03-22T01:45:08.961Z,7.80
2019-03-22T01:47:37.764Z,7.70
2019-03-22T01:50:11.860Z,7.70
2019-03-22T01:52:40.349Z,7.70
2019-03-22T01:55:09.349Z,7.70
2019-03-22T01:57:37.849Z,7.80
2019-03-22T02:00:09.701Z,7.70
2019-03-22T02:02:38.247Z,7.70
2019-03-22T02:05:07.777Z,7.70
2019-03-22T02:07:36.253Z,7.70
2019-03-22T02:10:12.515Z,7.60
2019-03-22T02:12:41.220Z,7.60
2019-03-22T02:15:15.077Z,7.60
2019-03-22T02:17:43.689Z,7.60
2019-03-22T02:20:14.431Z,7.60
2019-03-22T02:22:43.277Z,7.60
2019-03-22T02:25:12.542Z,7.50
2019-03-22T02:27:41.870Z,7.60
2019-03-22T02:30:17.617Z,7.60
2019-03-22T02:32:46.373Z,7.60
2019-03-22T02:35:27.554Z,7.60
2019-03-22T02:37:45.340Z,7.60
2019-03-22T02:40:14.469Z,7.60
2019-03-22T02:42:43.020Z,7.60
2019-03-22T02:45:14.311Z,7.60
2019-03-22T02:47:43.332Z,7.70
2019-03-22T02:50:18.422Z,7.60
2019-03-22T02:52:44.159Z,7.60
2019-03-22T02:55:13.695Z,7.70
2019-03-22T02:57:42.336Z,7.60
2019-03-22T03:00:16.304Z,7.70
2019-03-22T03:02:45.275Z,7.70
2019-03-22T03:05:15.489Z,7.70
2019-03-22T03:07:44.572Z,7.80
2019-03-22T03:10:16.033Z,7.80
2019-03-22T03:12:45.751Z,7.80
2019-03-22T03:15:16.352Z,7.70
2019-03-22T03:17:45.733Z,7.70
2019-03-22T03:20:18.946Z,7.80
2019-03-22T03:22:47.671Z,7.70
2019-03-22T03:25:17.701Z,7.80
2019-03-22T03:27:46.679Z,7.80
2019-03-22T03:30:18.144Z,7.80
2019-03-22T03:32:46.657Z,7.80
2019-03-22T03:35:16.856Z,7.80
2019-03-22T03:37:45.495Z,7.80
2019-03-22T03:40:15.196Z,7.80
2019-03-22T03:42:43.880Z,7.90
2019-03-22T03:45:32.638Z,7.90
2019-03-22T03:48:03.383Z,7.80
2019-03-22T03:50:32.194Z,7.80
2019-03-22T03:53:00.844Z,7.80
2019-03-22T03:55:29.877Z,7.80
2019-03-22T03:57:58.570Z,7.80
2019-03-22T04:00:30.380Z,7.80
2019-03-22T04:02:58.879Z,7.70
2019-03-22T04:05:27.465Z,7.70
2019-03-22T04:07:56.425Z,7.70
2019-03-22T04:10:24.997Z,7.70
2019-03-22T04:12:53.525Z,7.70
2019-03-22T04:15:22.253Z,7.70
2019-03-22T04:17:50.731Z,7.70
2019-03-22T04:20:19.288Z,7.70
2019-03-22T04:22:49.360Z,7.70
2019-03-22T04:25:18.043Z,7.70
2019-03-22T04:27:46.593Z,7.70
2019-03-22T04:30:15.705Z,7.70
2019-03-22T04:32:44.538Z,7.70
2019-03-22T04:35:13.140Z,7.60
2019-03-22T04:37:41.686Z,7.70
2019-03-22T04:40:24.999Z,7.70
2019-03-22T04:42:53.781Z,7.70
2019-03-22T04:45:24.661Z,7.60
2019-03-22T04:47:56.602Z,7.60
2019-03-22T04:50:27.714Z,7.70
2019-03-22T04:53:01.245Z,7.70
2019-03-22T04:55:34.473Z,7.70
2019-03-22T04:58:04.076Z,7.70
2019-03-22T05:00:34.298Z,7.80
2019-03-22T05:03:04.523Z,7.80
2019-03-22T05:05:33.534Z,7.70
2019-03-22T05:08:03.496Z,7.70
2019-03-22T05:10:33.999Z,7.70
2019-03-22T05:13:05.037Z,7.70
2019-03-22T05:15:34.756Z,7.80
2019-03-22T05:18:05.044Z,7.80
2019-03-22T05:20:35.851Z,7.90
2019-03-22T05:23:06.438Z,7.90
2019-03-22T05:25:36.242Z,7.90
2019-03-22T05:28:07.214Z,7.90
2019-03-22T05:30:47.622Z,7.90
2019-03-22T05:33:16.092Z,7.90
2019-03-22T05:35:44.575Z,7.90
2019-03-22T05:38:13.057Z,7.90
2019-03-22T05:40:41.613Z,7.90
2019-03-22T05:43:10.081Z,7.90
2019-03-22T05:45:38.632Z,7.80
2019-03-22T05:48:07.388Z,7.80
2019-03-22T05:50:35.993Z,7.80
2019-03-22T05:53:04.899Z,7.70
2019-03-22T05:55:33.842Z,7.70
2019-03-22T05:58:02.329Z,7.60
2019-03-22T06:00:30.803Z,7.60
2019-03-22T06:02:59.358Z,7.70
2019-03-22T06:05:27.859Z,7.60
2019-03-22T06:07:56.328Z,7.60
2019-03-22T06:10:24.862Z,7.70
2019-03-22T06:12:53.485Z,7.70
2019-03-22T06:15:22.028Z,7.70
2019-03-22T06:17:51.904Z,7.80
2019-03-22T06:20:20.941Z,7.80
2019-03-22T06:22:49.481Z,7.80
2019-03-22T06:25:18.245Z,7.80
2019-03-22T06:27:46.932Z,7.90
2019-03-22T06:30:15.906Z,7.90
2019-03-22T06:32:44.388Z,7.90
2019-03-22T06:35:13.157Z,7.90
2019-03-22T06:37:41.944Z,7.80
2019-03-22T06:40:10.752Z,7.80
2019-03-22T06:42:39.759Z,7.90
2019-03-22T06:45:09.294Z,7.90
2019-03-22T06:47:37.926Z,7.80
2019-03-22T06:50:08.472Z,7.80
2019-03-22T06:52:37.551Z,7.80
2019-03-22T06:55:07.650Z,7.90
2019-03-22T06:57:36.212Z,8.00
2019-03-22T07:00:10.787Z,8.00
2019-03-22T07:02:40.524Z,8.10
2019-03-22T07:05:09.233Z,8.20
2019-03-22T07:07:37.786Z,8.30
2019-03-22T07:10:09.196Z,8.40
2019-03-22T07:12:37.895Z,8.40
2019-03-22T07:15:07.608Z,8.50
2019-03-22T07:17:36.079Z,8.50
2019-03-22T07:20:09.329Z,8.60
2019-03-22T07:22:39.753Z,8.60
2019-03-22T07:25:09.477Z,8.60
2019-03-22T07:27:37.974Z,8.60
2019-03-22T07:30:18.698Z,8.70
2019-03-22T07:32:39.857Z,8.70
2019-03-22T07:35:08.765Z,8.60
2019-03-22T07:37:37.329Z,8.50
2019-03-22T07:40:10.908Z,8.50
2019-03-22T07:42:39.865Z,8.40
2019-03-22T07:45:11.244Z,8.30
2019-03-22T07:47:39.746Z,8.30
2019-03-22T07:50:10.781Z,8.30
2019-03-22T07:52:39.423Z,8.40
2019-03-22T07:55:09.110Z,8.50
2019-03-22T07:57:37.646Z,8.50
2019-03-22T08:00:13.229Z,8.50
2019-03-22T08:02:42.180Z,8.40
2019-03-22T08:05:11.204Z,8.30
2019-03-22T08:07:39.778Z,8.30
2019-03-22T08:10:09.993Z,8.40
2019-03-22T08:12:38.573Z,8.40
2019-03-22T08:15:08.765Z,8.40
2019-03-22T08:17:37.773Z,8.50
2019-03-22T08:20:08.773Z,8.50
2019-03-22T08:22:37.244Z,8.60
2019-03-22T08:25:06.394Z,8.60
2019-03-22T08:27:35.071Z,8.70
2019-03-22T08:30:05.445Z,8.80
2019-03-22T08:32:34.127Z,8.90
2019-03-22T08:35:02.742Z,8.90
2019-03-22T08:37:31.584Z,9.00
2019-03-22T08:40:00.220Z,9.00
2019-03-22T08:42:29.761Z,9.10
2019-03-22T08:44:58.787Z,9.10
2019-03-22T08:47:34.292Z,9.20
2019-03-22T08:49:59.313Z,9.30
2019-03-22T08:52:27.889Z,9.40
2019-03-22T08:54:56.410Z,9.50
2019-03-22T08:57:25.255Z,9.70
2019-03-22T08:59:54.269Z,9.80
2019-03-22T09:02:22.842Z,10.00
2019-03-22T09:04:51.387Z,10.10
2019-03-22T09:07:20.277Z,10.40
2019-03-22T09:09:48.845Z,10.50
2019-03-22T09:12:17.577Z,10.50
2019-03-22T09:14:46.158Z,10.50
2019-03-22T09:17:14.789Z,10.50
2019-03-22T09:19:43.374Z,10.50
2019-03-22T09:22:11.855Z,10.60
2019-03-22T09:24:40.339Z,10.70
2019-03-22T09:27:08.844Z,10.90
2019-03-22T09:29:37.402Z,10.90
2019-03-22T09:32:06.062Z,11.00
2019-03-22T09:34:34.625Z,11.10
2019-03-22T09:37:03.207Z,11.30
2019-03-22T09:39:31.797Z,11.40
2019-03-22T09:42:00.297Z,11.50
2019-03-22T09:44:30.286Z,11.70
2019-03-22T09:46:59.343Z,11.90
2019-03-22T09:49:28.271Z,12.10
2019-03-22T09:51:56.819Z,12.30
2019-03-22T09:54:27.311Z,12.50
2019-03-22T09:56:57.669Z,12.80
2019-03-22T09:59:26.167Z,13.10
2019-03-22T10:01:54.798Z,13.40
2019-03-22T10:04:23.443Z,13.50
2019-03-22T10:06:52.085Z,13.70
2019-03-22T10:09:20.626Z,13.80
2019-03-22T10:11:49.146Z,13.80
2019-03-22T10:14:17.751Z,13.90
2019-03-22T10:16:47.653Z,14.00
2019-03-22T10:19:16.818Z,14.10
2019-03-22T10:21:45.299Z,14.10
2019-03-22T10:24:13.837Z,14.20
2019-03-22T10:26:42.919Z,14.10
2019-03-22T10:29:11.403Z,14.20
2019-03-22T10:31:39.971Z,14.20
2019-03-22T10:34:08.586Z,14.20
2019-03-22T10:36:37.111Z,14.30
2019-03-22T10:39:08.497Z,14.40
2019-03-22T10:41:37.835Z,14.50
2019-03-22T10:44:06.418Z,14.60
2019-03-22T10:46:35.023Z,14.70
2019-03-22T10:49:06.424Z,14.80
2019-03-22T10:51:34.973Z,15.00
2019-03-22T10:54:03.524Z,15.10
2019-03-22T10:56:32.011Z,15.20
2019-03-22T10:59:00.501Z,15.30
2019-03-22T11:01:29.861Z,15.40
2019-03-22T11:03:58.454Z,15.50
2019-03-22T11:06:27.184Z,15.50
2019-03-22T11:08:55.801Z,15.60
2019-03-22T11:11:24.445Z,15.70
2019-03-22T11:13:54.797Z,15.80
2019-03-22T11:16:23.341Z,16.00
2019-03-22T11:18:51.905Z,16.10
2019-03-22T11:21:20.813Z,16.20
2019-03-22T11:23:49.419Z,16.30
2019-03-22T11:26:18.045Z,16.40
2019-03-22T11:28:46.551Z,16.50
2019-03-22T11:31:15.092Z,16.60
2019-03-22T11:33:43.691Z,16.80
2019-03-22T11:36:12.192Z,16.90
2019-03-22T11:38:40.757Z,17.00
2019-03-22T11:41:09.367Z,17.10
2019-03-22T11:43:37.918Z,17.20
2019-03-22T11:46:06.398Z,17.30
2019-03-22T11:48:34.865Z,17.40
2019-03-22T11:51:04.428Z,17.50
2019-03-22T11:53:33.044Z,17.70
2019-03-22T11:56:01.579Z,17.80
2019-03-22T11:58:30.153Z,17.90
2019-03-22T12:00:58.701Z,18.00
2019-03-22T12:03:27.257Z,18.00
2019-03-22T12:05:55.756Z,18.10
2019-03-22T12:08:25.539Z,18.20
2019-03-22T12:10:54.545Z,18.40
2019-03-22T12:13:23.044Z,18.40
2019-03-22T12:15:53.226Z,18.60
2019-03-22T12:18:21.709Z,18.70
2019-03-22T12:20:50.317Z,18.70
2019-03-22T12:23:18.870Z,18.60
2019-03-22T12:25:47.786Z,18.70
2019-03-22T12:28:16.373Z,18.80
2019-03-22T12:30:44.837Z,18.90
2019-03-22T12:33:13.886Z,19.00
2019-03-22T12:35:42.696Z,19.00
2019-03-22T12:38:13.821Z,19.00
2019-03-22T12:40:42.093Z,19.00
2019-03-22T12:43:10.697Z,19.00
2019-03-22T12:45:39.434Z,19.00
2019-03-22T12:48:07.907Z,19.10
2019-03-22T12:50:36.397Z,19.20
2019-03-22T12:53:05.691Z,19.40
2019-03-22T12:55:34.176Z,19.50
2019-03-22T12:58:02.999Z,19.40
2019-03-22T13:00:31.808Z,19.40
2019-03-22T13:03:00.912Z,19.30
2019-03-22T13:05:29.958Z,19.40
2019-03-22T13:07:58.576Z,19.50
2019-03-22T13:10:28.508Z,19.70
2019-03-22T13:12:57.198Z,19.80
2019-03-22T13:15:26.199Z,19.90
2019-03-22T13:17:54.826Z,20.00
2019-03-22T13:20:23.319Z,19.80
2019-03-22T13:22:51.885Z,19.80
2019-03-22T13:25:21.330Z,19.90
2019-03-22T13:27:50.281Z,19.90
2019-03-22T13:30:35.527Z,20.00
2019-03-22T13:33:06.004Z,19.90
2019-03-22T13:35:34.824Z,19.80
2019-03-22T13:38:06.525Z,19.70
2019-03-22T13:40:35.014Z,19.80
2019-03-22T13:43:03.577Z,19.80
2019-03-22T13:45:32.060Z,19.80
2019-03-22T13:48:00.608Z,19.90
2019-03-22T13:50:29.124Z,19.90
2019-03-22T13:52:57.656Z,19.80
2019-03-22T13:55:26.225Z,19.90
2019-03-22T13:57:54.742Z,19.90
2019-03-22T14:00:23.365Z,19.80
2019-03-22T14:03:02.088Z,19.80
2019-03-22T14:05:23.656Z,19.80
2019-03-22T14:07:52.602Z,19.80
2019-03-22T14:10:32.293Z,19.80
2019-03-22T14:13:02.911Z,19.70
2019-03-22T14:15:31.931Z,19.70
2019-03-22T14:18:01.416Z,19.70
2019-03-22T14:20:30.814Z,19.70
2019-03-22T14:22:59.616Z,19.70
2019-03-22T14:25:28.841Z,19.70
2019-03-22T14:27:57.364Z,19.70
2019-03-22T14:30:25.834Z,19.70
2019-03-22T14:32:55.138Z,19.70
2019-03-22T14:35:23.701Z,19.70
2019-03-22T14:37:53.066Z,19.70
2019-03-22T14:40:22.271Z,19.70
2019-03-22T14:42:51.299Z,19.70
2019-03-22T14:45:20.239Z,19.70
2019-03-22T14:47:48.915Z,19.60
2019-03-22T14:50:17.870Z,19.60
2019-03-22T14:52:46.441Z,19.60
2019-03-22T14:55:16.659Z,19.60
2019-03-22T14:57:49.937Z,19.60
2019-03-22T15:00:16.191Z,19.60
2019-03-22T15:02:44.957Z,19.60
2019-03-22T15:05:13.496Z,19.70
2019-03-22T15:07:42.113Z,19.60
2019-03-22T15:10:14.588Z,19.50
2019-03-22T15:12:43.614Z,19.50
2019-03-22T15:15:14.444Z,19.50
2019-03-22T15:17:50.562Z,19.50
2019-03-22T15:20:36.962Z,19.50
2019-03-22T15:23:23.614Z,19.50
2019-03-22T15:25:59.496Z,19.50
2019-03-22T15:28:32.600Z,19.50
2019-03-22T15:31:11.610Z,19.50
2019-03-22T15:33:47.568Z,19.50
2019-03-22T15:36:18.084Z,19.50
2019-03-22T15:39:00.617Z,19.50
2019-03-22T15:41:29.854Z,19.50
2019-03-22T15:43:58.357Z,19.50
2019-03-22T15:46:26.947Z,19.50
2019-03-22T15:48:55.884Z,19.40
2019-03-22T15:51:24.456Z,19.40
2019-03-22T15:53:53.004Z,19.40
2019-03-22T15:56:21.512Z,19.40
2019-03-22T15:58:49.984Z,19.40
2019-03-22T16:01:18.491Z,19.40
2019-03-22T16:03:47.050Z,19.30
2019-03-22T16:06:15.608Z,19.30
2019-03-22T16:08:44.461Z,19.30
2019-03-22T16:11:13.094Z,19.30
2019-03-22T16:13:41.571Z,19.30
2019-03-22T16:16:10.042Z,19.30
2019-03-22T16:18:38.545Z,19.20
2019-03-22T16:21:08.560Z,19.20
2019-03-22T16:23:37.035Z,19.20
2019-03-22T16:26:05.598Z,19.20
2019-03-22T16:28:34.135Z,19.10
2019-03-22T16:31:02.700Z,19.10
2019-03-22T16:33:31.420Z,19.10
2019-03-22T16:36:00.142Z,19.00
2019-03-22T16:38:30.667Z,19.00
2019-03-22T16:41:00.095Z,19.00
2019-03-22T16:43:28.602Z,18.90
2019-03-22T16:45:57.340Z,18.90
2019-03-22T16:48:26.043Z,18.90
2019-03-22T16:50:54.862Z,18.90
2019-03-22T16:53:23.467Z,18.80
2019-03-22T16:55:52.119Z,18.80
2019-03-22T16:58:20.594Z,18.80
2019-03-22T17:00:50.069Z,18.70
2019-03-22T17:03:19.180Z,18.60
2019-03-22T17:05:47.899Z,18.60
2019-03-22T17:08:16.530Z,18.50
2019-03-22T17:10:45.088Z,18.40
2019-03-22T17:13:13.882Z,18.40
2019-03-22T17:15:42.573Z,18.30
2019-03-22T17:18:11.065Z,18.30
2019-03-22T17:20:39.546Z,18.20
2019-03-22T17:23:08.098Z,18.20
2019-03-22T17:25:36.633Z,18.10
2019-03-22T17:28:05.581Z,18.10
2019-03-22T17:30:35.515Z,18.00
2019-03-22T17:33:04.940Z,17.90
2019-03-22T17:35:33.774Z,17.90
2019-03-22T17:38:02.407Z,17.80
2019-03-22T17:40:30.884Z,17.70
2019-03-22T17:42:59.479Z,17.70
2019-03-22T17:45:29.255Z,17.60
2019-03-22T17:47:58.264Z,17.50
2019-03-22T17:50:26.773Z,17.50
2019-03-22T17:52:55.244Z,17.40
2019-03-22T17:55:24.093Z,17.30
2019-03-22T17:57:53.891Z,17.30
2019-03-22T18:00:24.568Z,17.20
2019-03-22T18:02:53.182Z,17.10
2019-03-22T18:05:22.462Z,17.00
2019-03-22T18:07:52.674Z,16.90
2019-03-22T18:10:23.228Z,16.90
2019-03-22T18:12:51.908Z,16.80
2019-03-22T18:15:20.879Z,16.70
2019-03-22T18:17:49.674Z,16.60
2019-03-22T18:20:18.321Z,16.60
2019-03-22T18:22:46.959Z,16.50
2019-03-22T18:25:15.869Z,16.40
2019-03-22T18:27:44.993Z,16.40
2019-03-22T18:30:20.537Z,16.30
2019-03-22T18:32:49.673Z,16.30
2019-03-22T18:35:19.797Z,16.20
2019-03-22T18:37:48.267Z,16.10
2019-03-22T18:40:18.540Z,16.00
2019-03-22T18:42:47.002Z,15.90
2019-03-22T18:45:15.679Z,15.90
2019-03-22T18:47:44.460Z,15.80
2019-03-22T18:50:14.047Z,15.80
2019-03-22T18:52:43.795Z,15.70
2019-03-22T18:55:12.831Z,15.60
2019-03-22T18:57:41.526Z,15.60
2019-03-22T19:00:35.470Z,15.50
2019-03-22T19:03:08.287Z,15.50
2019-03-22T19:05:36.841Z,15.40
2019-03-22T19:08:07.094Z,15.40
2019-03-22T19:10:35.571Z,15.40
2019-03-22T19:13:04.689Z,15.30
2019-03-22T19:15:33.287Z,15.30
2019-03-22T19:18:02.284Z,15.20
2019-03-22T19:20:30.863Z,15.20
2019-03-22T19:22:59.342Z,15.20
2019-03-22T19:25:27.901Z,15.10
2019-03-22T19:27:56.391Z,15.00
2019-03-22T19:30:25.097Z,15.00
2019-03-22T19:32:53.580Z,15.00
2019-03-22T19:35:23.274Z,14.90
2019-03-22T19:37:52.886Z,14.90
2019-03-22T19:40:21.441Z,14.80
2019-03-22T19:42:50.177Z,14.70
2019-03-22T19:45:18.735Z,14.70
2019-03-22T19:47:53.373Z,14.60
2019-03-22T19:50:23.786Z,14.50
2019-03-22T19:52:52.319Z,14.40
2019-03-22T19:55:20.834Z,14.40
2019-03-22T19:57:49.372Z,14.30
2019-03-22T20:00:19.752Z,14.30
2019-03-22T20:02:49.289Z,14.20
2019-03-22T20:05:37.410Z,14.10
2019-03-22T20:08:06.318Z,14.10
2019-03-22T20:10:34.845Z,14.00
2019-03-22T20:13:03.857Z,13.90
2019-03-22T20:15:32.456Z,13.90
2019-03-22T20:18:01.026Z,13.80
2019-03-22T20:20:29.866Z,13.70
2019-03-22T20:22:58.521Z,13.60
2019-03-22T20:25:27.086Z,13.50
2019-03-22T20:27:55.563Z,13.40
2019-03-22T20:30:24.265Z,13.40
2019-03-22T20:32:52.778Z,13.30
2019-03-22T20:35:21.396Z,13.30
2019-03-22T20:37:50.060Z,13.20
2019-03-22T20:40:22.368Z,13.20
2019-03-22T20:42:51.022Z,13.10
2019-03-22T20:45:24.223Z,13.10
2019-03-22T20:47:49.902Z,13.00
2019-03-22T20:50:18.386Z,12.90
2019-03-22T20:52:49.344Z,12.90
2019-03-22T20:55:17.924Z,12.80
2019-03-22T20:57:46.551Z,12.80
2019-03-22T21:00:35.034Z,12.70
2019-03-22T21:03:03.517Z,12.70
2019-03-22T21:05:32.175Z,12.60
2019-03-22T21:08:00.692Z,12.50
2019-03-22T21:10:29.188Z,12.50
2019-03-22T21:12:59.332Z,12.50
2019-03-22T21:15:27.900Z,12.40
2019-03-22T21:18:09.222Z,12.40
2019-03-22T21:20:35.156Z,12.30
2019-03-22T21:23:09.726Z,12.20
2019-03-22T21:25:43.935Z,12.10
2019-03-22T21:28:12.531Z,12.10
2019-03-22T21:30:45.546Z,12.00
2019-03-22T21:33:14.012Z,12.00
2019-03-22T21:35:42.517Z,11.90
2019-03-22T21:38:11.489Z,11.80
2019-03-22T21:40:40.446Z,11.70
2019-03-22T21:43:09.230Z,11.70
2019-03-22T21:45:37.709Z,11.60
2019-03-22T21:48:06.266Z,11.50
2019-03-22T21:50:34.758Z,11.40
2019-03-22T21:53:03.231Z,11.30
2019-03-22T21:55:31.829Z,11.20
2019-03-22T21:58:00.356Z,11.20
2019-03-22T22:00:29.542Z,11.10
2019-03-22T22:02:58.192Z,11.10
2019-03-22T22:05:26.952Z,11.00
2019-03-22T22:07:55.782Z,10.80
2019-03-22T22:10:24.273Z,10.70
2019-03-22T22:12:52.846Z,10.70
2019-03-22T22:15:21.653Z,10.60
2019-03-22T22:17:50.165Z,10.50
2019-03-22T22:20:28.389Z,10.40
2019-03-22T22:22:49.016Z,10.30
2019-03-22T22:25:17.505Z,10.30
2019-03-22T22:27:46.296Z,10.20
2019-03-22T22:30:14.968Z,10.10
2019-03-22T22:32:43.485Z,10.00
2019-03-22T22:35:12.649Z,10.00
2019-03-22T22:37:41.148Z,9.90
2019-03-22T22:40:11.395Z,9.90
2019-03-22T22:42:40.085Z,9.90
2019-03-22T22:45:12.474Z,9.90
2019-03-22T22:47:40.945Z,9.90
2019-03-22T22:50:11.973Z,9.90
2019-03-22T22:52:40.853Z,10.00
2019-03-22T22:55:10.484Z,10.00
2019-03-22T22:57:39.105Z,10.00
2019-03-22T23:00:15.096Z,10.10
2019-03-22T23:02:44.811Z,10.10
2019-03-22T23:05:13.827Z,10.10
2019-03-22T23:07:42.688Z,10.20
2019-03-22T23:10:12.843Z,10.20
2019-03-22T23:12:42.051Z,10.20
2019-03-22T23:15:11.359Z,10.20
2019-03-22T23:17:40.050Z,10.20
2019-03-22T23:20:10.555Z,10.20
2019-03-22T23:22:39.202Z,10.20
2019-03-22T23:25:07.826Z,10.20
2019-03-22T23:27:37.558Z,10.20
2019-03-22T23:30:13.570Z,10.20
2019-03-22T23:32:42.087Z,10.20
2019-03-22T23:35:10.821Z,10.20
2019-03-22T23:37:39.319Z,10.20
2019-03-22T23:40:09.336Z,10.20
2019-03-22T23:42:37.877Z,10.20
2019-03-22T23:45:09.072Z,10.20
2019-03-22T23:47:37.845Z,10.20
2019-03-22T23:50:08.279Z,10.20
2019-03-22T23:52:36.788Z,10.20
2019-03-22T23:55:07.233Z,10.20
2019-03-22T23:57:35.791Z,10.20
